Arctic Bay, Canada
Current Conditions -  °F | °C
As of 4:00 PM on Monday 26 Jan 2015 (Local Time) from CYIO Reporting Station
Moderate Fog Moderate Fog  
Wind Chill: -68°   Ceiling: Unl
Heat Index: -45°   Visibility: 15mi
Dew Point: -54°   Wind: 7mph
Humidity: 60%   Direction: 170°S
Pressure: 29.44"   Gusts: NA
Location:  73.03°N, 85.17°W
Report Text: CYIO 262200Z 17006KT 15SM VCFG SKC M43/M48 A2944 RMK FROIN VIS-NE/E-1/4 SLP983
Loading
Personal Weather Stations






























Interactive Weather Map New forecast layout! Learn more

10-Day Weather Forecast

Advertisements
Track Severe Weather on mobile